Terminal Aerodrome Forecast
Issued by NWS Springfield, MO

Home | Current Version | Previous Version | Text Only | Print | Product List | Glossary On
Versions: 1 2 3 4 5 6 7 8 9 10 11 12 13 14 15 16 17 18 19 20 21 22
399
FTUS43 KSGF 262324
TAFSGF
TAF
KSGF 262324Z 2700/2724 VRB04KT P6SM BKN040
      TEMPO 2704/2708 5SM -TSRA BKN030CB
     FM270900 15005KT P6SM BKN020
      TEMPO 2709/2713 5SM BR
     FM271700 17011G17KT P6SM BKN035=

USA.gov is the U.S. government's official web portal to all federal, state and local government web resources and services.